Time;durP1;ratioP1;P1;durP2;ratioP2;P2;SDS_P1;SDS_P2;PMS_P1;PMS_P2;Temp;Humidity;BMP_temperature;BMP_pressure;BME280_temperature;BME280_humidity;BME280_pressure;Samples;Min_cycle;Max_cycle;Signal;HPM_P1;HPM_P2
2023/04/22 00:00:43;;;;;;;5.50;3.38;;;8.50;99.90;;;;;;4931268;28;20520;-64
2023/04/22 00:03:09;;;;;;;7.07;3.30;;;8.60;99.90;;;;;;4929270;28;20111;-65
2023/04/22 00:05:35;;;;;;;5.50;3.05;;;8.60;99.90;;;;;;4897749;28;20051;-64
2023/04/22 00:08:02;;;;;;;4.93;3.22;;;8.70;99.90;;;;;;4929572;28;20031;-64
2023/04/22 00:10:27;;;;;;;5.10;3.03;;;8.70;99.90;;;;;;4930025;28;20027;-63
2023/04/22 00:12:53;;;;;;;3.90;2.30;;;8.70;99.90;;;;;;4930413;28;20027;-65
2023/04/22 00:15:20;;;;;;;5.75;2.67;;;8.70;99.90;;;;;;4932475;28;20555;-65
2023/04/22 00:17:47;;;;;;;6.35;3.05;;;8.70;99.90;;;;;;4926921;28;20106;-66
2023/04/22 00:20:14;;;;;;;5.00;3.30;;;8.80;99.90;;;;;;4904107;28;20027;-65
2023/04/22 00:22:39;;;;;;;5.90;2.90;;;8.80;99.90;;;;;;4931486;28;20028;-64
2023/04/22 00:25:06;;;;;;;6.32;3.00;;;8.80;99.90;;;;;;4928906;28;20024;-64
2023/04/22 00:27:31;;;;;;;6.15;3.17;;;8.80;99.90;;;;;;4945690;28;20032;-64
2023/04/22 00:29:57;;;;;;;3.88;2.88;;;8.80;99.90;;;;;;4927127;28;20028;-65
2023/04/22 00:32:22;;;;;;;3.67;2.78;;;8.80;99.90;;;;;;4937586;28;20038;-64
2023/04/22 00:34:48;;;;;;;6.80;3.20;;;8.80;99.90;;;;;;4929434;28;20040;-66
2023/04/22 00:37:14;;;;;;;5.65;3.10;;;8.90;99.90;;;;;;4929437;28;20031;-64
2023/04/22 00:39:40;;;;;;;3.55;2.47;;;8.90;99.90;;;;;;4930286;28;20286;-64
2023/04/22 00:42:06;;;;;;;5.40;2.65;;;8.90;99.90;;;;;;4928218;28;20650;-65
2023/04/22 00:44:32;;;;;;;4.70;3.20;;;8.90;99.90;;;;;;4928093;28;20032;-62
2023/04/22 00:46:59;;;;;;;3.85;2.63;;;9.00;99.90;;;;;;4926476;28;20030;-62
2023/04/22 00:49:26;;;;;;;4.00;2.72;;;9.10;99.90;;;;;;4916902;28;20524;-64
2023/04/22 00:51:52;;;;;;;3.92;2.50;;;9.10;99.90;;;;;;4946768;28;20051;-64
2023/04/22 00:54:18;;;;;;;4.65;3.25;;;9.00;99.90;;;;;;4931491;28;20051;-64
2023/04/22 00:56:45;;;;;;;3.55;2.45;;;9.00;99.90;;;;;;4930291;28;20059;-64
2023/04/22 00:59:10;;;;;;;5.72;3.20;;;9.00;99.90;;;;;;4928834;28;20024;-63
2023/04/22 01:01:36;;;;;;;4.97;2.90;;;9.10;99.90;;;;;;4930599;28;20031;-65
2023/04/22 01:04:02;;;;;;;5.32;2.92;;;9.10;99.90;;;;;;4931612;28;20030;-66
2023/04/22 01:06:31;;;;;;;4.07;2.67;;;9.10;99.90;;;;;;4931486;28;20106;-65
2023/04/22 01:08:57;;;;;;;4.45;2.83;;;9.10;99.90;;;;;;4913831;28;20036;-65
2023/04/22 01:11:23;;;;;;;4.20;2.38;;;9.10;99.90;;;;;;4928380;28;20059;-64
2023/04/22 01:13:50;;;;;;;5.60;2.78;;;9.10;99.90;;;;;;4928521;28;20043;-64
2023/04/22 01:16:16;;;;;;;4.82;2.60;;;9.10;99.90;;;;;;4930904;28;20038;-65
2023/04/22 01:18:42;;;;;;;5.22;2.70;;;9.10;99.90;;;;;;4928406;28;20032;-64
2023/04/22 01:21:07;;;;;;;4.07;2.70;;;9.10;99.90;;;;;;4928970;28;20796;-65
2023/04/22 01:23:33;;;;;;;4.40;2.97;;;9.10;99.90;;;;;;4928536;28;20027;-65
2023/04/22 01:25:59;;;;;;;3.83;2.45;;;9.10;99.90;;;;;;4913246;28;20023;-65
2023/04/22 01:28:25;;;;;;;7.57;2.60;;;9.10;99.90;;;;;;4906501;28;20028;-63
2023/04/22 01:30:51;;;;;;;5.18;3.28;;;9.10;99.90;;;;;;4927016;28;20024;-65
2023/04/22 01:33:17;;;;;;;7.45;3.00;;;9.10;99.90;;;;;;4929509;28;20032;-64
2023/04/22 01:35:43;;;;;;;3.95;2.83;;;9.10;99.90;;;;;;4927562;28;20059;-63
2023/04/22 01:38:10;;;;;;;6.07;3.10;;;9.10;99.90;;;;;;4926221;28;20053;-64
2023/04/22 01:40:37;;;;;;;3.40;2.40;;;9.10;99.90;;;;;;4928842;28;20028;-64
2023/04/22 01:43:03;;;;;;;4.25;3.00;;;9.20;99.90;;;;;;4926449;28;20031;-64
2023/04/22 01:45:30;;;;;;;3.63;2.55;;;9.20;99.90;;;;;;4929754;28;20099;-65
2023/04/22 01:47:56;;;;;;;3.58;2.53;;;9.30;99.90;;;;;;4905906;28;20048;-65
2023/04/22 01:50:22;;;;;;;8.07;2.70;;;9.30;99.90;;;;;;4931267;28;20526;-63
2023/04/22 01:52:47;;;;;;;4.10;2.80;;;9.30;99.90;;;;;;4937755;28;20044;-64
2023/04/22 01:55:13;;;;;;;5.47;3.05;;;9.30;99.90;;;;;;4931746;28;20031;-64
2023/04/22 01:57:39;;;;;;;6.63;3.20;;;9.40;99.90;;;;;;4944188;28;20508;-64
2023/04/22 02:00:07;;;;;;;4.38;2.92;;;9.40;99.90;;;;;;4931385;28;20054;-64
2023/04/22 02:02:33;;;;;;;5.65;2.95;;;9.40;99.90;;;;;;4930669;28;20039;-67
2023/04/22 02:04:58;;;;;;;7.03;2.83;;;9.40;99.90;;;;;;4931431;28;20028;-65
2023/04/22 02:07:24;;;;;;;4.50;2.83;;;9.40;99.90;;;;;;4931464;28;20024;-64
2023/04/22 02:09:50;;;;;;;5.18;2.70;;;9.40;99.90;;;;;;4930677;28;20038;-66
2023/04/22 02:12:15;;;;;;;4.57;2.42;;;9.40;99.90;;;;;;4928125;28;20032;-64
2023/04/22 02:14:41;;;;;;;4.93;2.88;;;9.40;99.90;;;;;;4929972;28;20036;-65
2023/04/22 02:17:07;;;;;;;4.85;2.58;;;9.50;99.90;;;;;;4937182;28;20018;-65
2023/04/22 02:19:32;;;;;;;4.72;2.58;;;9.50;99.90;;;;;;4924198;28;20043;-64
2023/04/22 02:21:58;;;;;;;4.57;2.72;;;9.50;99.90;;;;;;4928066;28;20393;-65
2023/04/22 02:24:24;;;;;;;5.13;2.85;;;9.50;99.90;;;;;;4932822;28;20486;-65
2023/04/22 02:26:49;;;;;;;6.43;2.50;;;9.50;99.90;;;;;;4944147;28;20039;-67
2023/04/22 02:29:16;;;;;;;6.43;2.95;;;9.50;99.90;;;;;;4922525;28;20034;-65
2023/04/22 02:31:41;;;;;;;5.00;2.80;;;9.50;99.90;;;;;;4928766;28;20027;-63
2023/04/22 02:34:07;;;;;;;5.45;2.92;;;9.60;99.90;;;;;;4929373;28;20058;-65
2023/04/22 02:36:33;;;;;;;4.18;2.33;;;9.60;99.90;;;;;;4928225;28;20074;-65
2023/04/22 02:39:00;;;;;;;3.45;2.42;;;9.70;99.90;;;;;;4925554;28;20028;-63
2023/04/22 02:41:26;;;;;;;5.57;2.72;;;9.70;99.90;;;;;;4927448;28;20027;-63
2023/04/22 02:43:52;;;;;;;6.93;2.50;;;9.70;99.90;;;;;;4928296;28;20022;-64
2023/04/22 02:46:17;;;;;;;4.80;2.83;;;9.70;99.90;;;;;;4928983;28;20036;-63
2023/04/22 02:48:43;;;;;;;3.75;2.47;;;9.70;99.90;;;;;;4903107;28;20098;-65
2023/04/22 02:51:09;;;;;;;7.75;2.20;;;9.70;99.90;;;;;;4928295;28;20034;-64
2023/04/22 02:53:35;;;;;;;7.60;2.72;;;9.70;99.90;;;;;;4926217;28;20023;-64
2023/04/22 02:56:00;;;;;;;4.70;2.70;;;9.80;99.90;;;;;;4909192;28;20775;-64
2023/04/22 02:58:26;;;;;;;4.70;2.50;;;9.70;99.90;;;;;;4927165;28;20100;-64
2023/04/22 03:00:52;;;;;;;5.88;2.10;;;9.80;99.90;;;;;;4927092;28;20034;-65
2023/04/22 03:03:18;;;;;;;3.30;2.70;;;9.80;99.90;;;;;;4926055;28;20114;-63
2023/04/22 03:05:43;;;;;;;4.30;2.45;;;9.80;99.90;;;;;;4926954;28;20119;-63
2023/04/22 03:08:09;;;;;;;4.90;2.47;;;9.80;99.90;;;;;;4920808;28;20036;-64
2023/04/22 03:10:35;;;;;;;4.95;2.78;;;9.70;99.90;;;;;;4926543;28;20038;-66
2023/04/22 03:13:01;;;;;;;3.03;2.05;;;9.70;99.90;;;;;;4927619;28;20020;-66
2023/04/22 03:15:26;;;;;;;4.88;2.72;;;9.80;99.90;;;;;;4929254;28;20063;-65
2023/04/22 03:17:52;;;;;;;3.65;2.30;;;9.80;99.90;;;;;;4918081;28;20027;-64
2023/04/22 03:20:17;;;;;;;5.10;2.08;;;9.80;99.90;;;;;;4927753;28;20421;-65
2023/04/22 03:22:43;;;;;;;3.25;2.20;;;9.80;99.90;;;;;;4923469;28;20038;-62
2023/04/22 03:25:10;;;;;;;3.40;1.92;;;9.80;99.90;;;;;;4928455;28;20043;-65
2023/04/22 03:27:36;;;;;;;4.13;2.33;;;9.90;99.90;;;;;;4927338;28;20059;-65
2023/04/22 03:30:03;;;;;;;3.13;2.00;;;9.90;99.90;;;;;;4929600;28;20544;-65
2023/04/22 03:32:28;;;;;;;5.65;2.40;;;10.00;99.90;;;;;;4923794;28;20089;-67
2023/04/22 03:34:54;;;;;;;2.88;1.85;;;10.00;99.90;;;;;;4921323;28;20433;-65
2023/04/22 03:37:19;;;;;;;3.97;2.03;;;10.10;99.90;;;;;;4928401;28;20044;-66
2023/04/22 03:39:45;;;;;;;4.00;2.08;;;10.10;99.90;;;;;;4925333;28;20039;-66
2023/04/22 03:42:12;;;;;;;4.80;2.13;;;10.10;99.90;;;;;;4924436;28;20089;-63
2023/04/22 03:44:38;;;;;;;3.05;1.95;;;10.10;99.90;;;;;;4925629;28;20040;-65
2023/04/22 03:47:03;;;;;;;3.33;1.90;;;10.10;99.90;;;;;;4927561;28;20040;-64
2023/04/22 03:49:29;;;;;;;3.78;2.65;;;10.20;99.90;;;;;;4912100;28;20447;-66
2023/04/22 03:51:55;;;;;;;3.00;2.25;;;10.20;99.90;;;;;;4922955;28;20032;-65
2023/04/22 03:54:20;;;;;;;4.30;2.45;;;10.20;99.90;;;;;;4925353;28;20036;-65
2023/04/22 03:56:46;;;;;;;3.58;2.15;;;10.10;99.90;;;;;;4926560;28;20032;-67
2023/04/22 03:59:11;;;;;;;3.47;2.17;;;10.20;99.90;;;;;;4926162;28;20039;-62
2023/04/22 04:01:37;;;;;;;7.63;2.40;;;10.10;99.90;;;;;;4924230;28;20033;-64
2023/04/22 04:04:03;;;;;;;4.22;1.92;;;10.10;99.90;;;;;;4924769;28;20051;-65
2023/04/22 04:06:28;;;;;;;6.47;2.28;;;10.10;99.90;;;;;;4927134;28;20051;-64
2023/04/22 04:08:54;;;;;;;3.80;1.90;;;10.10;99.90;;;;;;4925121;28;20089;-65
2023/04/22 04:11:19;;;;;;;4.05;2.42;;;10.20;99.90;;;;;;4924209;28;20417;-65
2023/04/22 04:13:45;;;;;;;4.20;2.20;;;10.20;99.90;;;;;;4924044;28;20032;-66
2023/04/22 04:16:11;;;;;;;3.38;2.40;;;10.10;99.90;;;;;;4925803;28;20085;-65
2023/04/22 04:18:37;;;;;;;3.53;2.08;;;10.20;99.90;;;;;;4924378;28;20042;-64
2023/04/22 04:21:03;;;;;;;4.60;1.75;;;10.20;99.90;;;;;;4974728;23;20040;-67
2023/04/22 04:23:29;;;;;;;3.28;2.08;;;10.20;99.90;;;;;;4927018;28;20024;-67
2023/04/22 04:25:54;;;;;;;2.67;1.92;;;10.20;99.90;;;;;;4926982;28;20038;-66
2023/04/22 04:28:20;;;;;;;2.55;1.65;;;10.20;99.90;;;;;;4924166;28;20489;-67
2023/04/22 04:30:46;;;;;;;3.83;2.10;;;10.20;99.90;;;;;;4927288;28;20122;-67
2023/04/22 04:33:15;;;;;;;2.58;1.67;;;10.20;99.90;;;;;;4928107;28;20816;-67
2023/04/22 04:35:42;;;;;;;2.72;1.80;;;10.20;99.90;;;;;;4926605;28;20051;-67
2023/04/22 04:38:07;;;;;;;4.93;1.70;;;10.20;99.90;;;;;;4931044;28;20027;-67
2023/04/22 04:40:33;;;;;;;9.48;3.15;;;10.20;99.90;;;;;;4927131;28;20504;-66
2023/04/22 04:46:21;;;;;;;4.15;2.03;;;10.20;99.90;;;;;;4920982;28;20884;-68
2023/04/22 04:48:47;;;;;;;3.60;1.73;;;10.20;99.90;;;;;;4927860;28;20032;-66
2023/04/22 04:51:13;;;;;;;2.10;1.67;;;10.20;99.90;;;;;;4930364;28;20027;-67
2023/04/22 04:53:39;;;;;;;5.88;2.00;;;10.30;99.90;;;;;;4928588;28;20028;-67
2023/04/22 04:56:05;;;;;;;3.17;2.08;;;10.40;99.90;;;;;;4922485;28;20031;-67
2023/04/22 04:58:31;;;;;;;3.63;1.80;;;10.30;99.90;;;;;;4926795;28;20039;-67
2023/04/22 05:00:56;;;;;;;2.60;1.85;;;10.30;99.90;;;;;;4929756;28;20411;-67
2023/04/22 05:03:22;;;;;;;3.67;2.33;;;10.40;99.90;;;;;;4923988;28;20043;-67
2023/04/22 05:05:47;;;;;;;4.40;1.92;;;10.40;99.90;;;;;;4930062;28;20429;-67
2023/04/22 05:08:13;;;;;;;4.80;2.55;;;10.40;99.90;;;;;;4924423;28;20460;-67
2023/04/22 05:10:39;;;;;;;3.10;1.80;;;10.50;99.90;;;;;;4927992;28;20085;-67
2023/04/22 05:13:05;;;;;;;2.33;1.63;;;10.50;99.90;;;;;;4926099;28;20126;-66
2023/04/22 05:15:30;;;;;;;3.38;2.38;;;10.50;99.90;;;;;;4929379;28;20374;-68
2023/04/22 05:17:56;;;;;;;2.70;1.85;;;10.60;99.90;;;;;;4934925;28;20078;-67
2023/04/22 05:20:21;;;;;;;2.65;1.90;;;10.60;99.90;;;;;;4924718;28;20061;-67
2023/04/22 05:22:47;;;;;;;3.20;2.03;;;10.60;99.90;;;;;;4932919;28;20464;-68
2023/04/22 05:25:13;;;;;;;3.35;2.08;;;10.60;99.90;;;;;;4930020;28;20028;-66
2023/04/22 05:27:39;;;;;;;2.72;1.73;;;10.70;99.90;;;;;;4912577;28;20032;-66
2023/04/22 05:30:06;;;;;;;2.80;1.67;;;10.70;99.90;;;;;;4930397;28;20038;-67
2023/04/22 05:32:31;;;;;;;4.70;2.15;;;10.80;99.90;;;;;;4932620;29;20036;-67
2023/04/22 05:34:57;;;;;;;2.15;1.70;;;10.90;99.90;;;;;;4933272;29;20170;-67
2023/04/22 05:37:22;;;;;;;4.47;2.15;;;11.00;99.90;;;;;;4932420;28;20074;-67
2023/04/22 05:39:48;;;;;;;3.10;2.45;;;11.20;99.90;;;;;;4927020;28;20039;-67
2023/04/22 05:42:14;;;;;;;1.92;1.63;;;11.30;99.90;;;;;;4934409;28;20393;-67
2023/04/22 05:44:39;;;;;;;3.25;1.85;;;11.50;99.90;;;;;;4931908;28;20036;-66
2023/04/22 05:47:05;;;;;;;3.63;1.90;;;11.70;99.90;;;;;;4924938;28;20036;-66
2023/04/22 05:49:30;;;;;;;2.65;1.90;;;11.80;99.90;;;;;;4910938;28;20190;-67
2023/04/22 05:51:56;;;;;;;2.50;1.60;;;12.00;99.90;;;;;;4929435;28;20400;-64
2023/04/22 05:54:22;;;;;;;2.60;1.83;;;12.20;99.90;;;;;;4937165;28;20039;-65
2023/04/22 05:56:47;;;;;;;2.60;1.63;;;12.50;99.90;;;;;;4927116;28;20028;-67
2023/04/22 05:59:13;;;;;;;5.35;2.03;;;13.20;99.90;;;;;;4926383;28;20504;-64
2023/04/22 06:01:38;;;;;;;4.32;2.20;;;13.90;99.90;;;;;;4926162;28;20020;-65
2023/04/22 06:04:05;;;;;;;1.77;1.52;;;14.60;99.90;;;;;;4927346;28;20031;-65
2023/04/22 06:06:31;;;;;;;3.83;1.80;;;15.20;99.90;;;;;;4929791;28;20752;-64
2023/04/22 06:08:57;;;;;;;1.70;1.38;;;15.60;99.90;;;;;;4926280;28;20046;-65
2023/04/22 06:11:22;;;;;;;2.22;1.70;;;15.80;99.90;;;;;;4927476;28;20103;-65
2023/04/22 06:13:48;;;;;;;2.50;1.77;;;16.00;99.90;;;;;;4926409;28;20508;-64
2023/04/22 06:16:14;;;;;;;2.85;1.40;;;16.20;99.90;;;;;;4934394;28;20028;-65
2023/04/22 06:18:39;;;;;;;2.58;1.75;;;16.30;99.90;;;;;;4925702;28;20067;-65
2023/04/22 06:21:05;;;;;;;3.70;2.00;;;16.00;99.90;;;;;;4927440;28;20028;-66
2023/04/22 06:23:31;;;;;;;4.35;1.63;;;15.60;99.90;;;;;;4924761;28;20099;-65
2023/04/22 06:25:57;;;;;;;1.88;1.58;;;15.30;99.90;;;;;;4929394;28;20090;-64
2023/04/22 06:28:23;;;;;;;3.97;1.70;;;15.00;99.90;;;;;;4923442;28;20036;-65
2023/04/22 06:30:48;;;;;;;2.78;1.60;;;14.90;99.90;;;;;;4926080;28;20032;-68
2023/04/22 06:33:14;;;;;;;2.95;2.03;;;14.70;99.90;;;;;;4928760;28;20031;-64
2023/04/22 06:35:40;;;;;;;2.75;1.48;;;14.80;99.90;;;;;;4926155;28;20061;-65
2023/04/22 06:38:05;;;;;;;1.98;1.40;;;15.20;99.90;;;;;;4917388;28;20032;-65
2023/04/22 06:40:31;;;;;;;1.60;1.17;;;15.70;99.90;;;;;;4921267;28;20036;-65
2023/04/22 06:42:56;;;;;;;1.20;1.02;;;16.30;99.90;;;;;;4925703;28;20050;-65
2023/04/22 06:45:22;;;;;;;2.08;1.55;;;16.90;99.90;;;;;;4927730;28;20622;-65
2023/04/22 06:47:48;;;;;;;1.13;1.00;;;16.90;99.90;;;;;;4916683;28;20194;-64
2023/04/22 06:50:13;;;;;;;2.08;1.52;;;16.90;99.90;;;;;;4913067;28;20090;-65
2023/04/22 06:52:39;;;;;;;1.58;1.38;;;16.90;99.90;;;;;;4912181;28;20042;-65
2023/04/22 06:55:05;;;;;;;2.15;1.35;;;17.00;99.90;;;;;;4926169;28;20032;-66
2023/04/22 06:57:30;;;;;;;1.95;1.40;;;17.10;99.90;;;;;;4928724;28;20062;-67
2023/04/22 06:59:56;;;;;;;2.67;1.40;;;17.40;99.90;;;;;;4928838;28;20024;-67
2023/04/22 07:02:22;;;;;;;4.40;1.30;;;17.60;99.90;;;;;;4927209;28;20389;-67
2023/04/22 07:04:47;;;;;;;2.70;1.42;;;17.40;99.90;;;;;;4926026;28;20028;-64
2023/04/22 07:07:13;;;;;;;1.65;1.10;;;18.00;99.00;;;;;;4925037;28;20055;-67
2023/04/22 07:09:39;;;;;;;2.00;1.17;;;19.10;98.80;;;;;;4927560;28;20039;-68
2023/04/22 07:12:04;;;;;;;2.03;0.95;;;19.80;96.00;;;;;;4927255;28;20767;-67
2023/04/22 07:14:31;;;;;;;3.67;1.70;;;20.60;95.60;;;;;;4927985;28;20035;-66
2023/04/22 07:16:57;;;;;;;2.03;1.17;;;21.60;93.60;;;;;;4936165;28;20030;-66
2023/04/22 07:19:23;;;;;;;2.58;1.25;;;23.00;91.40;;;;;;5000913;28;20039;-67
2023/04/22 07:21:48;;;;;;;3.60;1.25;;;22.60;90.30;;;;;;4926340;28;20024;-67
2023/04/22 07:24:14;;;;;;;1.77;1.15;;;21.70;90.10;;;;;;4923554;28;20039;-66
2023/04/22 07:26:41;;;;;;;1.63;1.23;;;21.80;91.40;;;;;;4939420;28;20020;-66
2023/04/22 07:29:07;;;;;;;2.97;1.30;;;23.30;89.00;;;;;;4939865;29;20032;-66
2023/04/22 07:31:35;;;;;;;2.72;1.08;;;23.90;90.80;;;;;;4932868;28;20036;-66
2023/04/22 07:34:01;;;;;;;2.45;1.50;;;25.60;84.30;;;;;;4927297;28;20408;-66
2023/04/22 07:36:27;;;;;;;1.20;1.10;;;25.80;80.60;;;;;;4928953;28;20034;-65
2023/04/22 07:38:52;;;;;;;1.83;1.10;;;26.40;78.20;;;;;;4934526;28;20032;-66
2023/04/22 07:41:18;;;;;;;1.33;1.05;;;25.70;76.30;;;;;;4924635;28;20035;-67
2023/04/22 07:43:44;;;;;;;2.05;1.00;;;26.70;80.20;;;;;;4944774;28;20023;-66
2023/04/22 07:46:09;;;;;;;2.25;1.40;;;26.90;75.30;;;;;;4930806;28;20055;-66
2023/04/22 07:48:35;;;;;;;2.88;1.30;;;27.00;74.30;;;;;;4931830;28;20047;-66
2023/04/22 07:51:01;;;;;;;2.47;1.17;;;27.00;74.20;;;;;;4914525;28;20576;-66
2023/04/22 07:53:27;;;;;;;1.38;1.05;;;26.30;73.30;;;;;;4922938;28;20066;-66
2023/04/22 07:55:54;;;;;;;1.88;1.33;;;25.70;75.40;;;;;;4941385;28;20159;-66
2023/04/22 07:58:19;;;;;;;1.90;1.35;;;25.80;77.70;;;;;;4927202;28;20031;-67
2023/04/22 08:00:45;;;;;;;2.40;1.25;;;25.80;75.10;;;;;;4928561;28;20040;-66
2023/04/22 08:03:11;;;;;;;1.45;0.80;;;26.50;72.30;;;;;;4932146;28;20031;-67
2023/04/22 08:05:36;;;;;;;3.33;1.20;;;26.60;74.00;;;;;;4930083;28;20072;-66
2023/04/22 08:08:02;;;;;;;2.05;1.02;;;26.80;72.30;;;;;;4927908;28;20035;-67
2023/04/22 08:10:27;;;;;;;3.25;1.15;;;26.70;71.80;;;;;;4944998;28;20031;-66
2023/04/22 08:12:53;;;;;;;2.80;1.08;;;26.70;70.30;;;;;;4930172;28;20050;-66
2023/04/22 08:15:19;;;;;;;1.42;1.00;;;27.10;71.60;;;;;;4949314;28;20034;-67
2023/04/22 08:17:44;;;;;;;1.67;1.10;;;27.00;68.90;;;;;;4932257;28;20020;-67
2023/04/22 08:20:10;;;;;;;3.60;1.10;;;27.30;67.00;;;;;;4929059;28;20024;-67
2023/04/22 08:22:37;;;;;;;2.70;1.02;;;26.80;68.50;;;;;;4913351;28;20150;-68
2023/04/22 08:25:03;;;;;;;2.80;1.05;;;26.50;68.00;;;;;;4932438;28;20043;-67
2023/04/22 08:27:29;;;;;;;4.63;1.30;;;26.30;70.60;;;;;;4928254;28;20123;-67
2023/04/22 08:29:55;;;;;;;2.00;0.70;;;26.40;70.50;;;;;;4937034;28;20507;-67
2023/04/22 08:32:22;;;;;;;2.08;1.10;;;26.50;68.10;;;;;;4932105;28;20028;-67
2023/04/22 08:34:47;;;;;;;2.03;1.10;;;26.00;68.40;;;;;;4925862;28;20032;-67
2023/04/22 08:37:13;;;;;;;1.45;1.00;;;26.00;70.50;;;;;;4926985;28;20133;-67
2023/04/22 08:39:39;;;;;;;1.23;1.00;;;25.50;69.30;;;;;;4937293;28;20097;-67
2023/04/22 08:42:04;;;;;;;1.20;0.98;;;25.50;71.60;;;;;;4930674;28;20091;-67
2023/04/22 08:44:30;;;;;;;1.65;1.13;;;25.10;71.20;;;;;;4929701;28;20066;-67
2023/04/22 08:46:57;;;;;;;1.55;0.95;;;25.40;69.50;;;;;;4931019;28;20042;-67
2023/04/22 08:49:24;;;;;;;1.33;0.82;;;25.20;69.60;;;;;;4928964;28;20023;-67
2023/04/22 08:51:51;;;;;;;2.88;1.10;;;24.80;71.60;;;;;;4897159;28;20047;-67
2023/04/22 08:54:17;;;;;;;2.03;0.90;;;24.40;69.90;;;;;;4921708;28;20036;-67
2023/04/22 08:56:44;;;;;;;2.97;0.90;;;24.10;72.90;;;;;;4928205;28;20028;-67
2023/04/22 08:59:11;;;;;;;2.15;1.17;;;24.30;73.90;;;;;;4927970;28;20031;-67
2023/04/22 09:01:38;;;;;;;2.65;1.20;;;24.50;68.50;;;;;;4934161;29;20145;-67
2023/04/22 09:04:05;;;;;;;5.47;1.15;;;24.40;68.60;;;;;;4929682;28;20028;-67
2023/04/22 09:06:31;;;;;;;1.23;0.98;;;24.70;69.10;;;;;;4932899;28;20032;-66
2023/04/22 09:08:57;;;;;;;2.65;1.05;;;24.30;69.70;;;;;;4923945;28;20025;-67
2023/04/22 09:11:30;;;;;;;3.55;1.10;;;24.30;68.90;;;;;;4926822;28;20016;-67
2023/04/22 09:13:56;;;;;;;4.18;1.00;;;24.60;67.10;;;;;;4928897;28;20032;-66
2023/04/22 09:16:22;;;;;;;2.50;1.42;;;24.50;66.90;;;;;;4942702;28;20475;-68
2023/04/22 09:18:49;;;;;;;2.58;1.10;;;24.80;68.70;;;;;;4941261;28;20400;-67
2023/04/22 09:21:15;;;;;;;5.15;1.20;;;25.00;66.30;;;;;;4942579;29;20050;-67
2023/04/22 09:23:49;;;;;;;2.72;1.45;;;25.30;66.80;;;;;;4931973;29;20027;-67
2023/04/22 09:26:17;;;;;;;1.98;1.17;;;25.90;68.20;;;;;;4939980;28;20051;-66
2023/04/22 09:28:54;;;;;;;1.40;0.90;;;26.60;64.60;;;;;;4925883;28;20082;-67
2023/04/22 09:31:21;;;;;;;4.32;1.20;;;26.60;64.70;;;;;;4946650;28;20420;-67
2023/04/22 09:33:51;;;;;;;1.88;1.10;;;26.40;64.40;;;;;;4923081;28;20038;-67
2023/04/22 09:36:27;;;;;;;1.10;1.00;;;25.60;65.60;;;;;;4939502;28;20038;-67
2023/04/22 09:38:54;;;;;;;1.83;1.35;;;24.30;64.30;;;;;;4939493;29;20019;-67
2023/04/22 09:41:33;;;;;;;4.57;1.17;;;23.60;68.40;;;;;;4943906;28;20028;-66
2023/04/22 09:44:00;;;;;;;3.00;1.30;;;23.10;69.00;;;;;;4935675;28;20110;-66
2023/04/22 09:46:28;;;;;;;6.00;1.33;;;22.30;68.50;;;;;;4925449;28;20027;-67
2023/04/22 09:49:00;;;;;;;4.15;1.40;;;22.00;70.50;;;;;;4919368;28;20624;-66
2023/04/22 09:51:26;;;;;;;5.67;1.50;;;22.60;70.90;;;;;;4908019;28;20055;-67
2023/04/22 09:54:07;;;;;;;4.32;1.50;;;23.30;69.40;;;;;;4936961;28;20081;-66
2023/04/22 09:56:50;;;;;;;2.42;1.08;;;24.10;68.80;;;;;;4934713;28;20367;-66
2023/04/22 09:59:16;;;;;;;3.83;1.00;;;24.80;66.70;;;;;;4912520;28;20497;-67
2023/04/22 10:01:42;;;;;;;1.95;1.30;;;24.70;65.60;;;;;;4941828;28;20057;-65
2023/04/22 10:04:08;;;;;;;1.98;1.00;;;24.80;68.10;;;;;;4921254;28;20031;-66
2023/04/22 10:06:34;;;;;;;4.03;1.13;;;24.80;66.00;;;;;;4926708;28;20513;-66
2023/04/22 10:09:01;;;;;;;3.15;2.15;;;24.50;67.70;;;;;;4920973;28;20445;-66
2023/04/22 10:11:27;;;;;;;3.25;1.10;;;24.10;67.40;;;;;;4925953;28;20162;-66
2023/04/22 10:13:52;;;;;;;2.53;1.15;;;23.80;68.10;;;;;;4944815;28;20305;-66
2023/04/22 10:16:21;;;;;;;3.63;1.60;;;23.90;68.60;;;;;;4925538;28;20030;-65
2023/04/22 10:18:47;;;;;;;5.10;1.05;;;23.90;69.20;;;;;;4926230;28;20038;-67
2023/04/22 10:21:13;;;;;;;2.85;1.20;;;23.80;70.00;;;;;;4921299;28;20028;-67
2023/04/22 10:23:45;;;;;;;1.42;1.10;;;23.50;69.80;;;;;;4921672;28;20030;-68
2023/04/22 10:26:11;;;;;;;2.33;1.67;;;23.70;70.70;;;;;;4924504;28;20042;-66
2023/04/22 10:28:42;;;;;;;2.05;1.20;;;24.20;71.60;;;;;;4923068;28;21599;-66
2023/04/22 10:31:22;;;;;;;1.17;0.90;;;24.30;71.50;;;;;;4924513;28;20106;-66
2023/04/22 10:33:48;;;;;;;2.15;1.55;;;24.70;68.30;;;;;;4927217;28;20119;-67
2023/04/22 10:36:13;;;;;;;4.57;1.52;;;25.10;70.20;;;;;;4930465;28;20111;-66
2023/04/22 10:38:54;;;;;;;3.30;1.40;;;25.60;68.70;;;;;;4930352;28;20493;-66
2023/04/22 10:41:32;;;;;;;2.95;1.10;;;25.70;67.30;;;;;;4912550;28;20028;-66
2023/04/22 10:44:08;;;;;;;2.22;1.10;;;25.20;67.60;;;;;;4925705;28;20036;-66
2023/04/22 10:46:41;;;;;;;2.78;1.10;;;24.60;68.50;;;;;;4929351;28;20028;-66
2023/04/22 10:49:10;;;;;;;2.00;1.08;;;24.70;68.50;;;;;;4923681;28;20027;-67
2023/04/22 10:51:45;;;;;;;4.53;1.08;;;24.60;67.60;;;;;;4908769;28;20543;-66
2023/04/22 10:54:26;;;;;;;2.92;1.23;;;24.60;68.70;;;;;;4927393;28;20115;-65
2023/04/22 10:57:14;;;;;;;1.38;1.27;;;24.80;70.20;;;;;;4928073;28;20016;-66
2023/04/22 10:59:50;;;;;;;1.63;1.00;;;25.00;68.30;;;;;;4922215;28;20024;-66
2023/04/22 11:02:17;;;;;;;3.92;1.27;;;25.20;69.10;;;;;;4927205;28;20114;-66
2023/04/22 11:04:43;;;;;;;1.65;0.98;;;25.20;67.10;;;;;;4907384;28;20039;-65
2023/04/22 11:07:28;;;;;;;2.50;1.10;;;25.00;68.40;;;;;;4905315;28;20046;-66
2023/04/22 11:10:06;;;;;;;3.40;1.20;;;24.70;69.80;;;;;;4926830;28;20024;-66
2023/04/22 11:12:37;;;;;;;2.65;1.00;;;24.70;70.00;;;;;;4912791;28;20039;-65
2023/04/22 11:15:18;;;;;;;1.63;1.23;;;24.50;68.10;;;;;;4918552;28;20047;-66
2023/04/22 11:17:46;;;;;;;4.35;1.42;;;24.40;69.90;;;;;;4919992;28;20024;-67
2023/04/22 11:20:16;;;;;;;2.72;1.42;;;24.00;68.80;;;;;;4925964;28;20028;-66
2023/04/22 11:22:43;;;;;;;3.00;1.27;;;23.60;71.40;;;;;;4924540;28;20025;-66
2023/04/22 11:25:09;;;;;;;3.95;1.42;;;23.30;71.50;;;;;;4924115;28;20063;-67
2023/04/22 11:27:36;;;;;;;1.60;1.30;;;23.10;71.80;;;;;;4919798;28;20028;-66
2023/04/22 11:30:09;;;;;;;3.13;1.38;;;23.30;71.30;;;;;;4930171;28;20036;-67
2023/04/22 11:32:36;;;;;;;4.35;1.42;;;23.20;72.40;;;;;;4931718;28;20060;-66
2023/04/22 11:35:04;;;;;;;6.93;1.70;;;23.40;72.50;;;;;;4933162;28;20501;-67
2023/04/22 11:37:29;;;;;;;3.50;0.93;;;23.50;71.70;;;;;;4929646;28;20035;-67
2023/04/22 11:40:00;;;;;;;2.60;1.20;;;24.00;73.70;;;;;;4943517;28;20032;-67
2023/04/22 11:42:26;;;;;;;5.68;1.30;;;24.20;71.00;;;;;;4940156;28;20036;-67
2023/04/22 11:44:51;;;;;;;1.77;1.13;;;24.30;70.90;;;;;;4938726;28;20039;-67
2023/04/22 11:47:18;;;;;;;3.35;1.50;;;24.20;70.90;;;;;;4933874;28;20028;-67
2023/04/22 11:49:58;;;;;;;2.67;1.30;;;24.20;69.90;;;;;;4929491;28;20028;-66
2023/04/22 11:52:25;;;;;;;1.88;1.27;;;24.30;70.70;;;;;;4907349;28;20043;-66
2023/04/22 11:54:51;;;;;;;1.38;1.00;;;24.50;69.90;;;;;;4931529;28;20057;-66
2023/04/22 11:57:16;;;;;;;3.65;1.27;;;24.50;69.00;;;;;;4940563;28;20068;-66
2023/04/22 11:59:43;;;;;;;3.95;1.52;;;24.40;69.60;;;;;;4928379;28;20032;-66
2023/04/22 12:02:09;;;;;;;2.13;1.38;;;24.40;69.00;;;;;;4929077;28;20633;-66
2023/04/22 12:04:43;;;;;;;13.40;1.55;;;24.20;70.50;;;;;;4928196;28;20024;-66
2023/04/22 12:07:09;;;;;;;2.28;1.35;;;24.00;71.20;;;;;;4927270;28;20035;-67
2023/04/22 12:09:34;;;;;;;8.40;1.60;;;23.80;70.40;;;;;;4946684;28;20559;-67
2023/04/22 12:12:03;;;;;;;2.28;1.23;;;23.70;69.70;;;;;;4929351;28;20078;-66
2023/04/22 12:14:33;;;;;;;1.55;1.05;;;23.90;70.80;;;;;;4915522;28;20043;-66
2023/04/22 12:17:03;;;;;;;3.80;1.42;;;23.80;71.20;;;;;;4911629;28;20531;-67
2023/04/22 12:19:28;;;;;;;2.15;1.42;;;23.80;70.70;;;;;;4923520;28;20741;-66
2023/04/22 12:21:55;;;;;;;2.95;1.38;;;23.80;70.40;;;;;;4930390;28;20115;-67
2023/04/22 12:24:29;;;;;;;2.33;1.25;;;23.80;70.80;;;;;;4931943;28;20054;-67
2023/04/22 12:26:55;;;;;;;2.58;1.40;;;24.10;71.30;;;;;;4927027;28;20035;-66
2023/04/22 12:29:32;;;;;;;4.45;1.45;;;24.20;70.80;;;;;;4930683;28;20079;-67
2023/04/22 12:31:59;;;;;;;2.72;1.20;;;24.10;69.80;;;;;;4915284;28;20043;-66
2023/04/22 12:34:24;;;;;;;1.88;1.40;;;24.00;69.20;;;;;;4930699;28;20055;-67
2023/04/22 12:36:50;;;;;;;2.15;1.20;;;23.80;70.20;;;;;;4929503;28;20458;-67
2023/04/22 12:39:16;;;;;;;3.22;1.50;;;23.60;71.00;;;;;;4930659;28;20029;-66
2023/04/22 12:41:41;;;;;;;3.55;1.70;;;23.70;71.50;;;;;;4929622;28;20042;-67
2023/04/22 12:44:07;;;;;;;4.25;1.27;;;23.70;70.90;;;;;;4934630;29;20098;-66
2023/04/22 12:46:34;;;;;;;2.20;1.20;;;23.80;70.40;;;;;;4930436;28;20039;-67
2023/04/22 12:49:00;;;;;;;2.60;1.45;;;23.80;69.90;;;;;;4925612;28;20020;-66
2023/04/22 12:51:26;;;;;;;1.77;1.40;;;23.80;71.40;;;;;;4913529;28;20047;-67